Aérodrome :
LOGIN :

S'inscrire | Disclaimer

   EN    FR    IT 

 










Légende :    VFR   VFR Marginal   IFR   IFR Intensif   IFR Très Intensif
Visi : 
Plafond : 
>= 8 km
>= 3000ft
5 à 8 km
1000 à 3000 ft
1500m à 5 km
500 à 1000 ft
800 à 1500m
200 à 500 ft
< 800m
< 200 ft
Symboles :   Orages  Brouillard  Fortes neiges  Fortes précipitations  Vent > 20 kt
SIGMETs :   Divers  Orages  Givrage  Turbulence  Onde Orograph.  Cendres Volcan.






- Altitude de l'aérodrome : 79 ft
- Code IATA : SPU


LDSP - Split

DERNIER METAR :
  • 310800Z 12005KT 080V170 CAVOK 19/06 Q1015 NOSIG

METARs EXPIRÉS :
  • 310730Z 10005KT 040V150 CAVOK 19/04 Q1015 NOSIG
  • 310700Z 14004KT 090V190 CAVOK 18/04 Q1015 NOSIG
  • 310630Z 10004KT 070V130 CAVOK 18/04 Q1015 NOSIG
  • 310600Z 03004KT 350V100 CAVOK 18/04 Q1015 NOSIG
  • 310530Z 36006KT 330V030 CAVOK 17/05 Q1015 NOSIG

TAF TAF LDSP
Valide du 31 à 06h jusqu'au 01 à 06h UTC


310525Z 3106/0106 10006KT 9999 FEW050 TX21/3112Z TN14/0104Z
BECMG 3109/3111 23010KT
PROB30
TEMPO 3112/3115 29010KT FEW045TCU SCT050
BECMG 3114/3116 23007KT
BECMG 3116/3118 30009KT



MET'MAP, la Météo Aéronautique d'un coup d'oeil ! - Copyright ORBIFLY Décembre 2007 - Disclaimer

ORBIFLY MET'MAP TEAM :

Programmation & Développement : Alexandra Zaïnal
Sur une idée originale de : Baudouin d'Aumeries
Assistance à la programmation : Marc-Olivier Méhu
Soutien technique & logistique : Manuel Goepfert

Contact : metmap@orbifly.com




SOURCES & CREDITS :

   NOAA